Time;durP1;ratioP1;P1;durP2;ratioP2;P2;SDS_P1;SDS_P2;PMS_P1;PMS_P2;Temp;Humidity;BMP_temperature;BMP_pressure;BME280_temperature;BME280_humidity;BME280_pressure;Samples;Min_cycle;Max_cycle;Signal;HPM_P1;HPM_P2
2023/04/11 00:01:42;;;;;;;0.83;0.83;;;;;;;10.81;62.23;95280.16;4376279;32;20284;-57
2023/04/11 00:04:09;;;;;;;0.70;0.70;;;;;;;10.81;62.28;95274.87;4378378;32;20195;-58
2023/04/11 00:06:35;;;;;;;0.90;0.90;;;;;;;10.82;62.26;95265.81;4387404;32;20200;-58
2023/04/11 00:09:00;;;;;;;0.50;0.50;;;;;;;10.83;61.60;95253.34;4378375;32;20202;-58
2023/04/11 00:11:26;;;;;;;0.93;0.93;;;;;;;10.88;61.61;95256.69;4386855;32;20197;-57
2023/04/11 00:13:56;;;;;;;0.83;0.83;;;;;;;10.87;61.87;95251.66;4381871;32;20298;-57
2023/04/11 00:16:23;;;;;;;0.80;0.80;;;;;;;10.91;61.68;95240.19;4388541;32;20212;-57
2023/04/11 00:18:48;;;;;;;0.70;0.70;;;;;;;10.88;61.46;95235.47;4390839;32;20247;-57
2023/04/11 00:21:14;;;;;;;0.77;0.77;;;;;;;10.91;61.59;95237.53;4385773;32;20203;-58
2023/04/11 00:23:39;;;;;;;0.40;0.40;;;;;;;10.85;61.56;95236.03;4374417;32;20270;-58
2023/04/11 00:26:05;;;;;;;0.70;0.70;;;;;;;10.89;61.44;95237.03;4380385;32;20199;-58
2023/04/11 00:28:30;;;;;;;0.67;0.67;;;;;;;10.93;61.39;95235.34;4377668;32;20275;-58
2023/04/11 00:30:55;;;;;;;1.00;1.00;;;;;;;11.00;61.00;95229.66;4380968;32;20246;-57
2023/04/11 00:33:21;;;;;;;1.17;1.10;;;;;;;10.94;60.72;95231.63;4384607;32;20237;-58
2023/04/11 00:35:46;;;;;;;0.93;0.57;;;;;;;11.02;60.56;95233.56;4364365;32;20327;-58
2023/04/11 00:38:11;;;;;;;1.90;0.93;;;;;;;11.01;60.97;95234.63;4374427;32;20200;-58
2023/04/11 00:40:37;;;;;;;1.00;1.00;;;;;;;10.98;60.59;95222.00;4374552;32;20189;-58
2023/04/11 00:43:02;;;;;;;0.70;0.70;;;;;;;11.03;60.54;95223.72;4388888;32;20272;-57
2023/04/11 00:45:28;;;;;;;0.73;0.73;;;;;;;11.05;60.48;95210.94;4378930;32;20262;-57
2023/04/11 00:47:53;;;;;;;2.10;1.30;;;;;;;11.13;60.21;95204.94;4381892;32;20200;-58
2023/04/11 00:50:20;;;;;;;4.83;1.00;;;;;;;11.13;60.28;95202.28;4382946;32;20221;-57
2023/04/11 00:52:48;;;;;;;1.60;1.50;;;;;;;11.10;60.29;95194.13;4379819;32;20212;-58
2023/04/11 00:55:13;;;;;;;0.77;0.77;;;;;;;11.19;59.82;95187.03;4368339;32;20177;-58
2023/04/11 00:57:40;;;;;;;0.90;0.90;;;;;;;11.20;59.98;95176.13;4380349;32;20207;-58
2023/04/11 01:00:09;;;;;;;0.73;0.73;;;;;;;11.17;60.61;95173.28;4385534;32;20184;-58
2023/04/11 01:02:34;;;;;;;0.70;0.70;;;;;;;11.17;60.39;95167.97;4379469;32;20268;-57
2023/04/11 01:05:00;;;;;;;0.80;0.80;;;;;;;11.20;60.51;95165.50;4382286;32;20264;-57
2023/04/11 01:07:26;;;;;;;0.40;0.40;;;;;;;11.19;60.14;95161.28;4377389;32;20203;-58
2023/04/11 01:09:52;;;;;;;0.90;0.90;;;;;;;11.19;60.26;95168.44;4373781;32;20206;-58
2023/04/11 01:12:18;;;;;;;0.73;0.73;;;;;;;11.17;61.13;95173.28;4367676;32;20177;-58
2023/04/11 01:14:46;;;;;;;1.23;1.13;;;;;;;11.32;60.00;95175.56;4385033;32;20211;-57
2023/04/11 01:17:13;;;;;;;0.30;0.30;;;;;;;11.34;59.98;95176.06;4376709;32;20188;-58
2023/04/11 01:19:39;;;;;;;0.47;0.47;;;;;;;11.31;60.25;95172.12;4358107;32;20233;-58
2023/04/11 01:22:05;;;;;;;0.50;0.50;;;;;;;11.28;60.82;95183.34;4379493;32;20223;-57
2023/04/11 01:24:30;;;;;;;0.20;0.20;;;;;;;11.28;60.67;95187.88;4364445;32;20252;-58
2023/04/11 01:26:56;;;;;;;0.37;0.37;;;;;;;11.32;60.41;95184.31;4376182;32;20269;-58
2023/04/11 01:29:21;;;;;;;0.43;0.43;;;;;;;11.38;60.75;95174.38;4356522;32;20236;-58
2023/04/11 01:31:48;;;;;;;0.33;0.33;;;;;;;11.31;60.80;95177.44;4378661;32;20240;-58
2023/04/11 01:34:15;;;;;;;0.47;0.47;;;;;;;11.34;61.24;95168.09;4371058;32;20180;-58
2023/04/11 01:36:41;;;;;;;0.40;0.40;;;;;;;11.30;62.22;95159.16;4360413;32;20188;-58
2023/04/11 01:39:07;;;;;;;0.50;0.50;;;;;;;11.31;61.93;95147.44;4383496;32;20207;-58
2023/04/11 01:41:34;;;;;;;0.60;0.60;;;;;;;11.29;62.00;95141.66;4368870;32;20184;-58
2023/04/11 01:44:01;;;;;;;1.27;1.10;;;;;;;11.22;62.21;95150.03;4367068;32;20224;-58
2023/04/11 01:46:26;;;;;;;0.63;0.63;;;;;;;11.27;61.97;95159.75;4377650;32;20207;-58
2023/04/11 01:48:55;;;;;;;0.60;0.60;;;;;;;11.33;62.22;95158.56;4388334;32;20233;-58
2023/04/11 01:51:21;;;;;;;0.50;0.50;;;;;;;11.34;61.88;95146.84;4390849;32;20184;-58
2023/04/11 01:53:46;;;;;;;0.60;0.60;;;;;;;11.34;62.64;95139.66;4384776;32;20266;-58
2023/04/11 01:56:13;;;;;;;0.23;0.23;;;;;;;11.38;62.82;95147.03;4384118;32;20184;-58
2023/04/11 01:58:39;;;;;;;0.30;0.30;;;;;;;11.37;62.79;95164.84;4384900;32;20203;-58
2023/04/11 02:01:05;;;;;;;0.27;0.27;;;;;;;11.33;64.83;95174.47;4372398;32;20197;-58
2023/04/11 02:03:31;;;;;;;0.27;0.27;;;;;;;11.24;66.94;95155.03;4389221;32;20203;-58
2023/04/11 02:05:56;;;;;;;0.60;0.60;;;;;;;11.23;66.52;95148.16;4383672;32;20196;-58
2023/04/11 02:08:22;;;;;;;1.47;0.73;;;;;;;11.26;65.43;95123.66;4385111;32;20192;-58
2023/04/11 02:10:47;;;;;;;1.63;1.17;;;;;;;11.34;64.17;95118.41;4387714;32;20249;-58
2023/04/11 02:13:12;;;;;;;0.40;0.40;;;;;;;11.47;62.16;95108.00;4375538;32;20249;-58
2023/04/11 02:15:37;;;;;;;0.33;0.33;;;;;;;11.57;62.22;95097.94;4379980;32;20239;-57
2023/04/11 02:18:03;;;;;;;9.63;0.77;;;;;;;11.60;61.59;95102.63;4369990;32;20199;-58
2023/04/11 02:20:28;;;;;;;0.60;0.60;;;;;;;11.59;60.89;95098.41;4382202;32;20265;-58
2023/04/11 02:22:54;;;;;;;0.40;0.40;;;;;;;11.62;60.63;95097.03;4388202;32;20200;-57
2023/04/11 02:25:19;;;;;;;0.43;0.43;;;;;;;11.64;61.15;95095.59;4382272;32;20262;-58
2023/04/11 02:27:44;;;;;;;0.47;0.47;;;;;;;11.61;60.56;95082.94;4378696;32;20248;-57
2023/04/11 02:30:10;;;;;;;0.30;0.30;;;;;;;11.70;59.98;95083.75;4386234;32;20244;-58
2023/04/11 02:32:39;;;;;;;0.40;0.40;;;;;;;11.76;58.88;95078.31;4373848;32;20180;-58
2023/04/11 02:35:06;;;;;;;0.47;0.47;;;;;;;11.80;58.59;95072.13;4365743;32;20188;-58
2023/04/11 02:37:32;;;;;;;0.27;0.27;;;;;;;11.80;58.47;95076.66;4383942;32;20201;-58
2023/04/11 02:39:57;;;;;;;0.30;0.30;;;;;;;11.80;58.01;95076.66;4379609;32;20196;-58
2023/04/11 02:42:23;;;;;;;0.83;0.70;;;;;;;11.86;57.57;95080.72;4368658;32;20184;-58
2023/04/11 02:44:48;;;;;;;0.20;0.20;;;;;;;11.85;57.17;95069.31;4370048;32;20214;-57
2023/04/11 02:47:13;;;;;;;0.23;0.23;;;;;;;11.88;57.41;95055.41;4373349;32;20188;-57
2023/04/11 02:49:42;;;;;;;0.33;0.33;;;;;;;11.90;57.89;95055.09;4384945;32;20207;-58
2023/04/11 02:52:08;;;;;;;0.30;0.30;;;;;;;11.89;56.68;95048.22;4383474;32;20242;-58
2023/04/11 02:54:33;;;;;;;0.30;0.30;;;;;;;11.87;56.69;95047.75;4385719;32;20192;-58
2023/04/11 02:56:59;;;;;;;0.73;0.73;;;;;;;11.92;56.31;95053.72;4367969;32;20224;-58
2023/04/11 02:59:25;;;;;;;0.30;0.30;;;;;;;11.90;56.09;95060.41;4373134;32;20250;-58
2023/04/11 03:01:56;;;;;;;0.17;0.13;;;;;;;11.89;56.51;95067.59;4370884;32;20200;-57
2023/04/11 03:04:21;;;;;;;0.10;0.10;;;;;;;11.88;56.61;95057.28;4379511;32;20184;-58
2023/04/11 03:06:46;;;;;;;0.07;0.07;;;;;;;11.86;57.63;95048.81;4383989;32;20189;-57
2023/04/11 03:09:12;;;;;;;0.10;0.10;;;;;;;11.87;56.43;95047.75;4380703;32;20248;-58
2023/04/11 03:11:37;;;;;;;0.20;0.20;;;;;;;11.92;55.95;95039.63;4384279;32;20249;-57
2023/04/11 03:14:02;;;;;;;1.07;0.73;;;;;;;11.89;55.96;95034.94;4378408;32;20243;-58
2023/04/11 03:16:28;;;;;;;0.10;0.10;;;;;;;11.88;55.96;95031.47;4389717;32;20224;-58
2023/04/11 03:18:53;;;;;;;0.17;0.17;;;;;;;11.93;56.31;95038.53;4366577;32;20219;-58
2023/04/11 03:21:18;;;;;;;0.20;0.20;;;;;;;11.88;56.66;95033.34;4381749;32;20266;-57
2023/04/11 03:23:44;;;;;;;0.30;0.30;;;;;;;12.20;54.27;95033.00;4388210;32;20218;-58
2023/04/11 03:26:09;;;;;;;0.30;0.30;;;;;;;12.20;55.58;95022.34;4382469;32;20198;-57
2023/04/11 03:28:35;;;;;;;0.37;0.37;;;;;;;12.15;55.32;95019.84;4388274;32;20188;-58
2023/04/11 03:31:00;;;;;;;0.30;0.27;;;;;;;12.19;55.14;95023.44;4375698;32;20331;-58
2023/04/11 03:33:26;;;;;;;0.40;0.40;;;;;;;12.09;56.05;95026.38;4369533;32;20195;-58
2023/04/11 03:35:51;;;;;;;0.10;0.10;;;;;;;12.06;56.48;95021.69;4382978;32;20193;-58
2023/04/11 03:38:16;;;;;;;0.20;0.20;;;;;;;12.09;55.64;95026.38;4363830;32;20189;-58
2023/04/11 03:40:41;;;;;;;0.60;0.60;;;;;;;12.01;55.87;95012.00;4374520;32;20197;-58
2023/04/11 03:43:07;;;;;;;0.27;0.27;;;;;;;12.07;55.89;95017.94;4368800;32;20197;-58
2023/04/11 03:45:32;;;;;;;0.30;0.30;;;;;;;11.98;55.74;95015.25;4383569;32;20189;-58
2023/04/11 03:47:57;;;;;;;7.13;0.53;;;;;;;11.97;56.63;95018.22;4378728;32;20192;-57
2023/04/11 03:50:23;;;;;;;0.53;0.53;;;;;;;11.97;56.05;95020.88;4388185;32;20189;-57
2023/04/11 03:52:48;;;;;;;0.93;0.47;;;;;;;11.95;55.89;95018.53;4371519;32;20232;-58
2023/04/11 03:55:14;;;;;;;0.10;0.10;;;;;;;11.97;56.10;95012.91;4387081;32;20180;-58
2023/04/11 03:57:39;;;;;;;0.10;0.10;;;;;;;11.91;56.62;95008.81;4372799;32;20229;-57
2023/04/11 04:00:06;;;;;;;0.37;0.37;;;;;;;11.91;57.27;95006.16;4371737;32;20297;-58
2023/04/11 04:02:31;;;;;;;1.30;0.63;;;;;;;11.86;58.13;94995.66;4377504;32;20192;-58
2023/04/11 04:04:57;;;;;;;0.20;0.20;;;;;;;11.93;57.94;94996.00;4374170;32;20278;-57
2023/04/11 04:07:26;;;;;;;0.20;0.20;;;;;;;11.75;59.24;94987.19;4386624;32;20215;-58
2023/04/11 04:09:53;;;;;;;0.20;0.20;;;;;;;11.85;57.11;94984.25;4392917;32;20196;-57
2023/04/11 04:12:19;;;;;;;0.30;0.30;;;;;;;11.87;56.47;94975.97;4386056;32;20199;-57
2023/04/11 04:14:45;;;;;;;0.20;0.20;;;;;;;11.85;56.49;94983.47;4385748;32;20206;-57
2023/04/11 04:17:13;;;;;;;0.57;0.57;;;;;;;11.87;56.33;94978.63;4390126;32;20184;-57
2023/04/11 04:19:38;;;;;;;0.10;0.10;;;;;;;11.85;57.02;94978.16;4385153;32;20225;-58
2023/04/11 04:22:04;;;;;;;1.93;0.37;;;;;;;11.87;55.70;94982.06;4370108;32;20180;-58
2023/04/11 04:24:30;;;;;;;0.73;0.43;;;;;;;11.87;55.84;94970.66;4391103;32;20224;-58
2023/04/11 04:26:59;;;;;;;0.20;0.20;;;;;;;11.89;55.82;94974.56;4382509;32;20245;-57
2023/04/11 04:29:32;;;;;;;0.20;0.20;;;;;;;11.89;55.13;94973.78;4386832;32;20203;-57
2023/04/11 04:31:58;;;;;;;0.10;0.10;;;;;;;11.92;54.60;94978.50;4379431;32;20180;-57
2023/04/11 04:34:27;;;;;;;0.40;0.40;;;;;;;11.94;54.88;94984.28;4372219;32;20189;-57
2023/04/11 04:36:58;;;;;;;0.23;0.23;;;;;;;11.90;55.77;94989.44;4385239;32;20211;-58
2023/04/11 04:39:24;;;;;;;0.40;0.40;;;;;;;11.92;54.90;95005.84;4384057;32;20176;-58
2023/04/11 04:41:57;;;;;;;0.90;0.60;;;;;;;11.91;55.07;95009.59;4383459;32;20196;-57
2023/04/11 04:44:23;;;;;;;2.10;0.63;;;;;;;11.92;55.64;95027.12;4376468;32;20192;-57
2023/04/11 04:46:52;;;;;;;0.50;0.50;;;;;;;11.87;55.97;95045.88;4384402;32;20202;-58
2023/04/11 04:49:18;;;;;;;0.23;0.20;;;;;;;11.88;57.32;95042.13;4377013;32;20256;-58
2023/04/11 04:51:43;;;;;;;4.67;0.53;;;;;;;11.75;61.55;95027.03;4389794;32;20198;-58
2023/04/11 04:54:08;;;;;;;0.20;0.20;;;;;;;11.82;62.29;95027.41;4387240;32;20247;-57
2023/04/11 04:56:34;;;;;;;15.70;1.03;;;;;;;11.80;61.84;95023.50;4383768;32;20188;-58
2023/04/11 04:58:59;;;;;;;0.20;0.20;;;;;;;11.81;62.69;95022.41;4368455;32;20242;-57
2023/04/11 05:01:25;;;;;;;0.37;0.37;;;;;;;11.99;61.40;95016.06;4384471;32;20199;-57
2023/04/11 05:03:57;;;;;;;0.43;0.43;;;;;;;11.98;60.76;95023.25;4383426;32;20224;-58
2023/04/11 05:06:30;;;;;;;0.33;0.33;;;;;;;11.94;62.07;95024.16;4374820;32;20185;-58
2023/04/11 05:08:57;;;;;;;0.53;0.53;;;;;;;12.02;61.14;95018.88;4389591;32;20210;-57
2023/04/11 05:11:27;;;;;;;0.43;0.43;;;;;;;12.09;60.87;95039.69;4384487;32;20181;-58
2023/04/11 05:13:52;;;;;;;0.37;0.37;;;;;;;12.13;61.29;95031.87;4371033;32;20219;-58
2023/04/11 05:16:18;;;;;;;0.23;0.23;;;;;;;12.22;61.27;95022.81;4382908;32;20192;-58
2023/04/11 05:18:44;;;;;;;0.00;0.00;;;;;;;12.24;61.27;95027.84;4385768;32;20196;-58
2023/04/11 05:21:10;;;;;;;0.00;0.00;;;;;;;12.31;61.99;95026.25;4390355;32;20236;-58
2023/04/11 05:23:36;;;;;;;0.47;0.47;;;;;;;12.24;64.81;95041.13;4372726;32;20211;-58
2023/04/11 05:26:01;;;;;;;0.47;0.47;;;;;;;12.14;66.31;95041.41;4383675;32;20185;-58
2023/04/11 05:28:27;;;;;;;0.40;0.20;;;;;;;12.10;69.60;95041.25;4370439;32;20212;-57
2023/04/11 05:30:53;;;;;;;0.93;0.40;;;;;;;12.06;69.76;95027.00;4385226;32;20206;-58
2023/04/11 05:33:18;;;;;;;0.67;0.67;;;;;;;11.95;70.93;95025.72;4384651;32;20181;-58
2023/04/11 05:35:43;;;;;;;0.40;0.33;;;;;;;11.98;70.21;95035.75;4384637;32;20192;-57
2023/04/11 05:38:09;;;;;;;0.10;0.10;;;;;;;12.00;69.85;95031.69;4390214;32;20188;-57
2023/04/11 05:40:37;;;;;;;0.13;0.13;;;;;;;11.96;69.86;95027.28;4367714;32;20188;-58
2023/04/11 05:43:03;;;;;;;0.27;0.27;;;;;;;12.02;69.58;95034.03;4383946;32;20262;-57
2023/04/11 05:45:28;;;;;;;0.77;0.47;;;;;;;11.95;69.90;95031.03;4389588;32;20192;-58
2023/04/11 05:47:53;;;;;;;1.23;0.60;;;;;;;11.94;69.61;95029.47;4377015;32;20240;-57
2023/04/11 05:50:19;;;;;;;0.40;0.40;;;;;;;11.96;69.45;95033.41;4373076;32;20180;-57
2023/04/11 05:52:44;;;;;;;0.20;0.20;;;;;;;12.01;69.57;95040.44;4382871;32;20188;-60
2023/04/11 05:55:10;;;;;;;0.20;0.20;;;;;;;12.12;71.29;95025.75;4374122;32;20185;-60
2023/04/11 05:57:35;;;;;;;3.07;0.87;;;;;;;12.03;72.19;95033.75;4385673;32;20203;-60
2023/04/11 06:00:06;;;;;;;0.30;0.30;;;;;;;12.07;74.24;95023.25;4385863;32;20215;-60
2023/04/11 06:02:32;;;;;;;0.20;0.20;;;;;;;11.97;73.58;95031.53;4380134;32;20297;-60
2023/04/11 06:04:57;;;;;;;0.53;0.50;;;;;;;12.02;74.20;95031.37;4384676;32;20188;-61
2023/04/11 06:07:22;;;;;;;0.30;0.30;;;;;;;12.01;74.58;95029.81;4378347;32;20207;-60
2023/04/11 06:09:48;;;;;;;0.20;0.20;;;;;;;11.93;75.08;95041.97;4383049;32;20180;-60
2023/04/11 06:12:14;;;;;;;0.23;0.23;;;;;;;11.94;75.39;95038.25;4374646;32;20180;-60
2023/04/11 06:14:39;;;;;;;0.30;0.30;;;;;;;11.80;76.41;95044.75;4383738;32;20275;-60
2023/04/11 06:17:05;;;;;;;0.30;0.30;;;;;;;11.85;76.73;95041.94;4382382;32;20255;-58
2023/04/11 06:19:30;;;;;;;1.30;0.30;;;;;;;11.92;76.51;95050.25;4387083;32;20275;-58
2023/04/11 06:21:55;;;;;;;0.20;0.20;;;;;;;11.92;78.02;95048.38;4382935;32;20193;-58
2023/04/11 06:24:37;;;;;;;0.10;0.10;;;;;;;11.93;76.13;95044.66;4392432;32;20188;-59
2023/04/11 06:27:03;;;;;;;0.77;0.40;;;;;;;11.96;77.84;95045.91;4371132;32;20180;-58
2023/04/11 06:29:29;;;;;;;0.60;0.60;;;;;;;11.93;76.57;95054.50;4367848;32;20188;-58
2023/04/11 06:31:54;;;;;;;0.87;0.87;;;;;;;11.92;77.34;95063.56;4383074;32;20204;-58
2023/04/11 06:34:20;;;;;;;0.80;0.70;;;;;;;11.85;77.68;95063.22;4380702;32;20228;-58
2023/04/11 06:36:48;;;;;;;0.20;0.20;;;;;;;12.00;77.61;95073.44;4376640;32;20228;-58
2023/04/11 06:39:15;;;;;;;0.30;0.30;;;;;;;12.04;77.25;95077.06;4374384;32;20196;-58
2023/04/11 06:41:41;;;;;;;0.30;0.30;;;;;;;12.04;76.72;95071.75;4387220;32;20294;-57
2023/04/11 06:44:06;;;;;;;1.20;0.27;;;;;;;11.91;77.59;95083.25;4397812;32;20192;-58
2023/04/11 06:46:31;;;;;;;0.70;0.70;;;;;;;11.87;77.98;95074.31;4379797;32;20237;-59
2023/04/11 06:48:57;;;;;;;0.37;0.37;;;;;;;11.91;79.33;95083.25;4376766;32;20188;-58
2023/04/11 06:51:22;;;;;;;4.27;0.73;;;;;;;11.86;80.39;95078.06;4393382;32;20200;-58
2023/04/11 06:53:47;;;;;;;0.30;0.30;;;;;;;11.85;81.60;95071.97;4391956;32;20188;-60
2023/04/11 06:56:13;;;;;;;0.43;0.43;;;;;;;11.91;83.00;95093.88;4388831;32;20185;-58
2023/04/11 06:58:38;;;;;;;0.67;0.67;;;;;;;11.88;83.96;95092.63;4379326;32;20334;-58
2023/04/11 07:01:03;;;;;;;0.30;0.30;;;;;;;11.63;85.22;95099.38;4389744;32;20199;-58
2023/04/11 07:03:29;;;;;;;0.40;0.40;;;;;;;11.59;86.31;95093.09;4369134;32;20207;-58
2023/04/11 07:05:55;;;;;;;0.83;0.30;;;;;;;11.39;87.81;95098.13;4383782;32;20253;-58
2023/04/11 07:08:21;;;;;;;0.30;0.30;;;;;;;11.07;90.13;95091.19;4391320;32;20216;-58
2023/04/11 07:10:46;;;;;;;0.20;0.20;;;;;;;10.94;90.58;95098.91;4373989;32;20185;-58
2023/04/11 07:13:11;;;;;;;0.17;0.17;;;;;;;10.94;91.12;95104.22;4384426;32;20234;-58
2023/04/11 07:15:37;;;;;;;0.57;0.57;;;;;;;10.76;92.42;95118.44;4386675;32;20180;-57
2023/04/11 07:18:02;;;;;;;2.03;0.57;;;;;;;10.76;92.93;95113.13;4387645;32;20227;-58
2023/04/11 07:20:29;;;;;;;0.50;0.43;;;;;;;10.74;92.73;95120.59;4384357;32;20215;-60
2023/04/11 07:22:55;;;;;;;0.20;0.20;;;;;;;10.54;93.45;95137.75;4383175;32;20193;-60
2023/04/11 07:25:25;;;;;;;0.23;0.23;;;;;;;10.61;94.18;95132.00;4387060;32;20211;-60
2023/04/11 07:27:52;;;;;;;0.50;0.50;;;;;;;10.44;95.26;95135.28;4385082;32;20227;-60
2023/04/11 07:30:17;;;;;;;7.93;0.83;;;;;;;10.35;96.30;95128.34;4376678;32;20236;-60
2023/04/11 07:32:43;;;;;;;0.10;0.10;;;;;;;10.33;96.79;95129.41;4370222;32;20296;-59
2023/04/11 07:35:09;;;;;;;0.30;0.30;;;;;;;10.38;96.08;95128.53;4383835;32;20207;-60
2023/04/11 07:37:35;;;;;;;0.23;0.23;;;;;;;10.37;96.75;95136.78;4385016;32;20196;-60
2023/04/11 07:40:00;;;;;;;0.10;0.10;;;;;;;10.31;96.86;95126.28;4384977;32;20263;-60
2023/04/11 07:42:26;;;;;;;0.73;0.53;;;;;;;10.06;97.58;95141.84;4388851;32;20249;-60
2023/04/11 07:44:51;;;;;;;0.20;0.20;;;;;;;10.13;97.88;95150.19;4389862;32;20189;-60
2023/04/11 07:47:17;;;;;;;0.20;0.20;;;;;;;10.06;98.75;95157.75;4375267;32;20221;-60
2023/04/11 07:49:42;;;;;;;0.17;0.10;;;;;;;10.07;98.68;95157.47;4387415;32;20184;-60
2023/04/11 07:52:08;;;;;;;0.10;0.10;;;;;;;10.13;97.88;95158.94;4376725;32;20223;-60
2023/04/11 07:54:33;;;;;;;0.30;0.30;;;;;;;10.15;98.21;95154.13;4373861;32;20181;-60
2023/04/11 07:57:00;;;;;;;0.30;0.30;;;;;;;9.99;98.15;95177.47;4370092;32;20259;-60
2023/04/11 07:59:25;;;;;;;0.10;0.10;;;;;;;10.09;97.42;95179.16;4384894;32;20188;-60
2023/04/11 08:02:01;;;;;;;0.10;0.10;;;;;;;10.15;95.21;95172.69;4389273;32;20285;-60
2023/04/11 08:04:33;;;;;;;0.17;0.17;;;;;;;10.16;94.66;95168.97;4388203;32;20192;-60
2023/04/11 08:06:58;;;;;;;0.20;0.13;;;;;;;10.21;94.47;95176.03;4373676;32;20203;-60
2023/04/11 08:09:26;;;;;;;0.00;0.00;;;;;;;10.31;92.74;95186.47;4385839;32;20219;-60
2023/04/11 08:11:52;;;;;;;0.10;0.10;;;;;;;10.45;92.03;95191.75;4368934;32;20192;-60
2023/04/11 08:14:18;;;;;;;0.10;0.10;;;;;;;10.44;92.87;95195.50;4389104;32;20221;-60
2023/04/11 08:16:43;;;;;;;0.20;0.20;;;;;;;10.58;92.80;95193.63;4386813;32;20246;-59
2023/04/11 08:19:10;;;;;;;0.00;0.00;;;;;;;10.52;93.70;95208.84;4392944;32;20255;-59
2023/04/11 08:21:36;;;;;;;0.20;0.17;;;;;;;10.53;92.13;95210.44;4393138;32;20184;-59
2023/04/11 08:24:01;;;;;;;0.40;0.40;;;;;;;10.16;88.25;95224.63;4373317;32;20203;-60
2023/04/11 08:26:27;;;;;;;0.10;0.10;;;;;;;10.04;88.75;95224.28;4392126;32;20203;-59
2023/04/11 08:28:53;;;;;;;0.00;0.00;;;;;;;10.05;87.01;95230.37;4390722;32;20199;-60
2023/04/11 08:31:18;;;;;;;0.07;0.07;;;;;;;10.26;88.23;95239.56;4389224;32;20197;-59
2023/04/11 08:33:44;;;;;;;0.00;0.00;;;;;;;10.20;87.44;95230.91;4379376;32;20223;-59
2023/04/11 08:36:10;;;;;;;0.00;0.00;;;;;;;10.26;88.18;95250.19;4371682;32;20188;-60
2023/04/11 08:38:36;;;;;;;0.00;0.00;;;;;;;10.41;87.35;95241.94;4389794;32;20219;-59
2023/04/11 08:41:01;;;;;;;0.00;0.00;;;;;;;10.65;86.44;95231.16;4389506;32;20180;-60
2023/04/11 08:43:33;;;;;;;0.10;0.10;;;;;;;10.54;86.58;95227.13;4370997;32;20195;-60
2023/04/11 08:46:04;;;;;;;0.00;0.00;;;;;;;10.49;87.37;95224.56;4397200;32;20209;-59
2023/04/11 08:48:31;;;;;;;0.00;0.00;;;;;;;10.38;88.50;95229.28;4375617;32;20233;-59
2023/04/11 08:50:56;;;;;;;0.20;0.20;;;;;;;10.38;89.11;95239.91;4396799;32;20184;-60
2023/04/11 08:53:24;;;;;;;0.27;0.27;;;;;;;10.33;88.66;95240.78;4391977;32;20211;-60
2023/04/11 08:55:50;;;;;;;0.20;0.10;;;;;;;10.22;88.41;95238.59;4376243;32;20257;-60
2023/04/11 08:58:16;;;;;;;0.27;0.27;;;;;;;10.44;85.60;95227.31;4378163;32;20180;-59
2023/04/11 09:00:42;;;;;;;0.00;0.00;;;;;;;10.41;83.63;95226.03;4387385;32;20204;-60
2023/04/11 09:03:10;;;;;;;0.07;0.07;;;;;;;10.28;84.84;95238.22;4390473;32;20224;-57
2023/04/11 09:05:38;;;;;;;0.00;0.00;;;;;;;9.93;83.92;95242.25;4385699;32;20188;-58
2023/04/11 09:08:09;;;;;;;0.00;0.00;;;;;;;9.87;82.98;95226.72;4384751;32;20230;-59
2023/04/11 09:10:36;;;;;;;0.00;0.00;;;;;;;9.98;84.02;95241.34;4392664;32;20184;-59
2023/04/11 09:13:23;;;;;;;0.10;0.10;;;;;;;10.07;81.73;95244.13;4387778;32;20191;-59
2023/04/11 09:16:05;;;;;;;0.00;0.00;;;;;;;10.14;81.13;95255.94;4368633;32;20204;-59
2023/04/11 09:18:32;;;;;;;2.17;0.20;;;;;;;10.01;80.78;95267.28;4387066;32;20284;-59
2023/04/11 09:21:00;;;;;;;0.20;0.20;;;;;;;9.98;82.63;95266.00;4388178;32;20292;-59
2023/04/11 09:23:26;;;;;;;0.50;0.47;;;;;;;9.97;82.18;95264.44;4394298;32;20248;-59
2023/04/11 09:25:52;;;;;;;0.50;0.27;;;;;;;9.96;83.09;95265.50;4378118;32;20251;-58
2023/04/11 09:28:18;;;;;;;0.00;0.00;;;;;;;10.22;82.16;95265.88;4390051;32;20203;-57
2023/04/11 09:30:53;;;;;;;2.63;0.50;;;;;;;10.38;79.99;95265.63;4388004;32;20180;-59
2023/04/11 09:33:21;;;;;;;0.20;0.20;;;;;;;10.26;79.88;95261.56;4380828;32;20184;-59
2023/04/11 09:35:52;;;;;;;0.10;0.10;;;;;;;10.54;79.56;95269.56;4378801;32;20207;-59
2023/04/11 09:38:35;;;;;;;0.00;0.00;;;;;;;10.53;80.11;95276.75;4385014;32;20239;-59
2023/04/11 09:41:03;;;;;;;0.10;0.10;;;;;;;10.54;77.73;95280.97;4386253;32;20278;-58
2023/04/11 09:43:53;;;;;;;0.10;0.10;;;;;;;10.60;78.36;95289.59;4363462;32;20199;-57
2023/04/11 09:46:20;;;;;;;0.00;0.00;;;;;;;10.56;76.80;95292.06;4372653;32;20254;-60
2023/04/11 09:48:50;;;;;;;0.00;0.00;;;;;;;10.37;75.06;95299.31;4375354;32;20183;-60
2023/04/11 09:51:16;;;;;;;0.20;0.20;;;;;;;10.31;75.21;95297.81;4381654;32;20216;-60
2023/04/11 09:53:42;;;;;;;0.10;0.10;;;;;;;10.39;75.52;95294.50;4380789;32;20239;-58
2023/04/11 09:56:08;;;;;;;0.00;0.00;;;;;;;10.19;76.16;95303.56;4373204;32;20200;-59
2023/04/11 09:58:37;;;;;;;2.07;0.73;;;;;;;10.23;76.45;95307.22;4383293;32;20211;-59
2023/04/11 10:01:06;;;;;;;0.00;0.00;;;;;;;10.44;76.04;95312.97;4390446;32;20177;-59
2023/04/11 10:03:37;;;;;;;0.30;0.30;;;;;;;10.49;74.88;95307.56;4385188;32;20199;-63
2023/04/11 10:06:19;;;;;;;5.20;0.20;;;;;;;10.59;79.92;95301.31;4371128;32;20203;-61
2023/04/11 10:08:46;;;;;;;2.03;0.50;;;;;;;13.82;82.93;95292.88;4390123;32;20189;-59
2023/04/11 10:11:13;;;;;;;0.20;0.20;;;;;;;14.70;73.43;95294.00;4388622;32;20235;-59
2023/04/11 10:13:42;;;;;;;0.23;0.23;;;;;;;15.36;67.41;95297.00;4380198;32;20243;-60
2023/04/11 10:16:20;;;;;;;0.00;0.00;;;;;;;15.68;64.23;95308.94;4378329;32;20203;-60
2023/04/11 10:18:51;;;;;;;1.00;0.50;;;;;;;16.16;59.54;95312.97;4387299;32;20218;-59
2023/04/11 10:21:29;;;;;;;0.47;0.30;;;;;;;16.38;58.96;95303.78;4390998;32;20184;-60
2023/04/11 10:24:10;;;;;;;0.30;0.30;;;;;;;16.34;54.97;95308.22;4384576;32;20192;-60
2023/04/11 10:26:54;;;;;;;0.40;0.40;;;;;;;16.57;56.68;95305.97;4389643;32;20202;-60
2023/04/11 10:29:31;;;;;;;0.40;0.40;;;;;;;16.77;54.36;95305.13;4373854;32;20207;-59
2023/04/11 10:32:16;;;;;;;0.40;0.20;;;;;;;16.46;52.75;95306.37;4385490;32;20180;-59
2023/04/11 10:34:53;;;;;;;0.30;0.30;;;;;;;16.51;53.53;95313.41;4388569;32;20242;-59
2023/04/11 10:38:45;;;;;;;0.40;0.40;;;;;;;16.44;53.49;95307.81;4382715;32;20232;-60
2023/04/11 10:41:23;;;;;;;0.40;0.40;;;;;;;16.55;52.61;95303.59;4380373;32;20243;-59
2023/04/11 10:43:49;;;;;;;2.53;0.67;;;;;;;16.41;52.32;95306.59;4388017;32;20206;-60
2023/04/11 10:46:23;;;;;;;0.30;0.30;;;;;;;16.21;53.08;95325.38;4369420;32;20197;-59
2023/04/11 10:49:03;;;;;;;0.37;0.37;;;;;;;16.32;52.99;95321.94;4387164;32;20248;-59
2023/04/11 10:51:30;;;;;;;0.30;0.30;;;;;;;16.44;52.01;95330.00;4385684;32;20250;-59
2023/04/11 10:53:58;;;;;;;0.20;0.20;;;;;;;16.43;52.78;95335.69;4390842;32;20200;-60
2023/04/11 10:56:41;;;;;;;0.40;0.40;;;;;;;16.47;52.67;95324.00;4386016;32;20192;-57
2023/04/11 10:59:29;;;;;;;0.40;0.40;;;;;;;14.32;58.89;95328.63;4387926;32;20221;-57
2023/04/11 11:01:55;;;;;;;0.97;0.43;;;;;;;13.11;64.04;95337.56;4367754;32;20188;-57
2023/04/11 11:04:34;;;;;;;0.57;0.20;;;;;;;12.08;68.11;95349.22;4364772;32;20259;-56
2023/04/11 11:07:00;;;;;;;0.27;0.27;;;;;;;11.43;70.23;95341.56;4379876;32;20222;-57
2023/04/11 11:09:27;;;;;;;0.13;0.13;;;;;;;10.66;72.66;95344.16;4382954;32;20185;-59
2023/04/11 11:12:14;;;;;;;0.37;0.37;;;;;;;10.53;73.33;95350.22;4386934;32;20205;-59
2023/04/11 11:14:46;;;;;;;0.17;0.17;;;;;;;10.62;72.79;95345.81;4385060;32;20180;-60
2023/04/11 11:17:13;;;;;;;0.40;0.40;;;;;;;10.49;72.35;95335.97;4388005;32;20240;-58
2023/04/11 11:19:46;;;;;;;0.63;0.47;;;;;;;10.56;72.22;95339.03;4377049;32;20172;-59
2023/04/11 11:22:24;;;;;;;0.20;0.20;;;;;;;10.68;70.48;95334.03;4374765;32;20239;-58
2023/04/11 11:24:49;;;;;;;0.40;0.40;;;;;;;10.75;71.29;95333.66;4388296;32;20177;-59
2023/04/11 11:27:19;;;;;;;0.60;0.40;;;;;;;10.81;69.95;95333.25;4379227;32;20220;-58
2023/04/11 11:29:45;;;;;;;0.00;0.00;;;;;;;10.98;69.47;95333.47;4371188;32;20200;-58
2023/04/11 11:32:21;;;;;;;1.00;0.33;;;;;;;10.89;70.58;95351.16;4372974;32;20189;-58
2023/04/11 11:34:46;;;;;;;0.30;0.30;;;;;;;10.76;69.82;95341.31;4381644;32;20264;-57
2023/04/11 11:37:13;;;;;;;0.30;0.30;;;;;;;10.76;71.12;95341.31;4388407;32;20207;-60